Arrowhead Farms, California
Current Conditions -  °F | °C
As of 6:50 PM on Sunday 21 Dec 2014 (Local Time) from KSBD Reporting Station
Haze Haze  
Wind Chill: 54°   Ceiling: 15000
Heat Index: 54°   Visibility: 5mi
Dew Point: 45°   Wind: 0mph
Humidity: 72%   Direction: NA
Pressure: 30.08"   Gusts: NA
Location:  34.2759°N, 117.303°W
Report Text: KSBD 220250Z 00000KT 5SM HZ BKN150 12/07 A3008
Loading
Personal Weather Stations






























Interactive Weather Map New forecast layout! Learn more

10-Day Weather Forecast

Advertisements
Track Severe Weather on mobile